Nefterudovoz-29m — UIMI — position and weather

sailwx.info

Track history (hours):
 
Tides and Currents Weather Stations Pressure Air Temp Water Temp Dewpoint Dewpoint Depression Visibility Wind Speed Wind Dir Waves Ship Positions

Nefterudovoz-29m

Last reported at 2016-Jul-28 17:33 UTC. Time now 2016-Jul-28 18:18 UTC.
Position N 45°29' E 036°38'.

Length 119 m; draft 3.6 m.

Type: Cargo ship. MMSI: 273345300.

Date/timePositionNaut miles runAvg speedWind from/ knotsBaromVisibWave heightAir tempDewpointWater temp
2016-Jul-28 17:33N 45°29' E 036°38'0 0.0
2016-Jul-28 16:33N 45°29' E 036°38'0 0.0
2016-Jul-28 15:33N 45°29' E 036°38'0 0.0
2016-Jul-28 14:33N 45°29' E 036°38'3 2.9
2016-Jul-28 13:33N 45°30' E 036°42'112 6.6
2016-Jul-27 20:33N 47°00' E 038°18'7 6.7
2016-Jul-27 19:33N 47°01' E 038°27'19 0.5
2016-Jul-26 03:32N 47°02' E 038°55'126 3.8
2016-Jul-24 18:25N 45°32' E 036°47'5 6.2
2016-Jul-24 17:33N 45°28' E 036°43'7 6.8
2016-Jul-24 16:34N 45°22' E 036°40'7 7.0
2016-Jul-24 15:33N 45°19' E 036°30'6 6.4
2016-Jul-24 14:33N 45°12' E 036°28'7 7.0
2016-Jul-24 13:32N 45°05' E 036°30'53 7.1
2016-Jul-24 06:04N 44°47' E 035°20'4 7.6
2016-Jul-24 05:29N 44°45' E 035°14'7 7.8
2016-Jul-24 04:33N 44°43' E 035°04'8 7.7
2016-Jul-24 03:33N 44°40' E 034°54'8 8.1
2016-Jul-24 02:33N 44°36' E 034°44'8 8.0
2016-Jul-24 01:33N 44°33' E 034°34'8 7.6
2016-Jul-24 00:33N 44°29' E 034°25'7 7.3
2016-Jul-23 23:33N 44°25' E 034°16'  
2016-Jul-21 14:21N 44°36' E 033°25'0 0.3
2016-Jul-21 13:26N 44°36' E 033°25'5 5.5
2016-Jul-21 12:33N 44°33' E 033°19'38 6.4
2016-Jul-21 06:33N 44°26' E 034°12'7 7.4
2016-Jul-21 05:33N 44°29' E 034°21'8 7.7
2016-Jul-21 04:34N 44°32' E 034°31'7 7.5
2016-Jul-21 03:34N 44°36' E 034°40'8 7.6
2016-Jul-21 02:34N 44°39' E 034°50'76 6.7
2016-Jul-20 15:11N 45°07' E 036°30'4 5.7
2016-Jul-20 14:33N 45°10' E 036°28'6 5.8
2016-Jul-20 13:33N 45°16' E 036°28'7 7.0
2016-Jul-20 12:33N 45°20' E 036°36'7 6.7
2016-Jul-20 11:33N 45°26' E 036°41'3 2.9
2016-Jul-20 10:33N 45°29' E 036°40'0 0.0
2016-Jul-20 09:33N 45°29' E 036°40'0 0.0
2016-Jul-20 08:33N 45°29' E 036°40'5 5.1
2016-Jul-20 07:33N 45°32' E 036°45'91 6.3
2016-Jul-19 17:18N 46°54' E 037°42'  
Track history (hours):
 
Tides and Currents Weather Stations Pressure Air Temp Water Temp Dewpoint Dewpoint Depression Visibility Wind Speed Wind Dir Waves Ship Positions

Nefterudovoz-29m

Last reported at 2016-Jul-28 17:33 UTC. Time now 2016-Jul-28 18:18 UTC.
Position N 45°29' E 036°38'.

Length 119 m; draft 3.6 m.

Type: Cargo ship. MMSI: 273345300.

Date/timePositionNaut miles runAvg speedWind from/ knotsBaromVisibWave heightAir tempDewpointWater temp
2016-Jul-28 17:33N 45°29' E 036°38'0 0.0
2016-Jul-28 16:33N 45°29' E 036°38'0 0.0
2016-Jul-28 15:33N 45°29' E 036°38'0 0.0
2016-Jul-28 14:33N 45°29' E 036°38'3 2.9
2016-Jul-28 13:33N 45°30' E 036°42'112 6.6
2016-Jul-27 20:33N 47°00' E 038°18'7 6.7
2016-Jul-27 19:33N 47°01' E 038°27'19 0.5
2016-Jul-26 03:32N 47°02' E 038°55'126 3.8
2016-Jul-24 18:25N 45°32' E 036°47'5 6.2
2016-Jul-24 17:33N 45°28' E 036°43'7 6.8
2016-Jul-24 16:34N 45°22' E 036°40'7 7.0
2016-Jul-24 15:33N 45°19' E 036°30'6 6.4
2016-Jul-24 14:33N 45°12' E 036°28'7 7.0
2016-Jul-24 13:32N 45°05' E 036°30'53 7.1
2016-Jul-24 06:04N 44°47' E 035°20'4 7.6
2016-Jul-24 05:29N 44°45' E 035°14'7 7.8
2016-Jul-24 04:33N 44°43' E 035°04'8 7.7
2016-Jul-24 03:33N 44°40' E 034°54'8 8.1
2016-Jul-24 02:33N 44°36' E 034°44'8 8.0
2016-Jul-24 01:33N 44°33' E 034°34'8 7.6
2016-Jul-24 00:33N 44°29' E 034°25'7 7.3
2016-Jul-23 23:33N 44°25' E 034°16'  
2016-Jul-21 14:21N 44°36' E 033°25'0 0.3
2016-Jul-21 13:26N 44°36' E 033°25'5 5.5
2016-Jul-21 12:33N 44°33' E 033°19'38 6.4
2016-Jul-21 06:33N 44°26' E 034°12'7 7.4
2016-Jul-21 05:33N 44°29' E 034°21'8 7.7
2016-Jul-21 04:34N 44°32' E 034°31'7 7.5
2016-Jul-21 03:34N 44°36' E 034°40'8 7.6
2016-Jul-21 02:34N 44°39' E 034°50'76 6.7
2016-Jul-20 15:11N 45°07' E 036°30'4 5.7
2016-Jul-20 14:33N 45°10' E 036°28'6 5.8
2016-Jul-20 13:33N 45°16' E 036°28'7 7.0
2016-Jul-20 12:33N 45°20' E 036°36'7 6.7
2016-Jul-20 11:33N 45°26' E 036°41'3 2.9
2016-Jul-20 10:33N 45°29' E 036°40'0 0.0
2016-Jul-20 09:33N 45°29' E 036°40'0 0.0
2016-Jul-20 08:33N 45°29' E 036°40'5 5.1
2016-Jul-20 07:33N 45°32' E 036°45'91 6.3
2016-Jul-19 17:18N 46°54' E 037°42'  

Dump ship's entire track history